Terminal Aerodrome Forecast
Issued by NWS Houston/Galveston TX

Home | Current Version | Previous Version | Text Only | Print | Product List | Glossary On
Versions: 1 2 3 4 5 6 7 8 9 10 11 12 13 14 15 16 17 18 19 20 21 22 23 24 25 26 27 28
000
FTUS44 KHGX 220322 AAB
TAFHOU
TAF AMD
KHOU 220322Z 2203/2224 15010KT 6SM -SHRA BR VCTS BKN014 OVC045CB
      TEMPO 2203/2206 VRB15G25KT 1SM +TSRA BKN008 OVC018CB
     FM220700 28009KT P6SM VCSH BKN015 BKN035
     FM220900 30009KT P6SM BKN015
     FM221600 32011G17KT P6SM FEW020 BKN250=

USA.gov is the U.S. government's official web portal to all federal, state and local government web resources and services.